Decoded Metar for OMRK (RAS AL KHAIMAH in UNITED ARAB EMIRATES) (IATA:RKT) | Meteo·Mobile Aviation Weather
aviador You're here:

OMRK Decoded Metar

RAS AL KHAIMAH in UNITED ARAB EMIRATES
Report Time2018-10-23 12:00:00
UTC Time2018-10-23 12:35:28
Flight Rules vfr VFR
Wind270° at 14 kt
W.Decomp.*RWY 34: 4.6 kt HW 13.2 kt LCW
W.Rank270° ranks 20
Current wind is above 270° avg. (5.5)
Visibility9999 m
Phenomena:N/A
Clouds:Scattered 040 Hf
Expected CloudBase > 4,800 ft AGL from Temp-Dew spread
CeilingNone
Temp33°C (ISA +18)
Dew Point21°C (49% RH)
Heat Index36.0°C
AAT32.1°C
QNH1012 hPa
Density Alt2,536 ft
Elevation102 ft
Report Wrong Elevation
Raw Report
METAR OMRK 231200Z 27014KT 9999 SCT040 33/21 Q1012 A2991=

Extra information for OMRK:More info

Metar Taf Metar & Taf Last 4 Metars F.Rules Stats Wind Profile Meteogram Temp Stats Airport Information Weather charts Add Link Nearby VenuesMetar ALERT Operation Metar Decoded Social comments